createdAt,value
2022-10-04T00:01:33.654Z,3.40
2022-10-04T00:04:16.295Z,4.53
2022-10-04T00:06:47.633Z,4.33
2022-10-04T00:09:18.304Z,4.50
2022-10-04T00:11:48.822Z,4.27
2022-10-04T00:14:19.787Z,4.40
2022-10-04T00:16:48.736Z,4.03
2022-10-04T00:19:26.565Z,4.27
2022-10-04T00:22:18.517Z,5.07
2022-10-04T00:25:06.898Z,5.30
2022-10-04T00:27:39.161Z,4.17
2022-10-04T00:30:19.492Z,5.30
2022-10-04T00:32:51.632Z,5.20
2022-10-04T00:35:38.942Z,5.20
2022-10-04T00:38:16.890Z,5.57
2022-10-04T00:40:54.332Z,4.60
2022-10-04T00:43:26.143Z,5.73
2022-10-04T00:45:58.865Z,5.30
2022-10-04T00:48:35.395Z,5.10
2022-10-04T00:51:07.134Z,5.70
2022-10-04T00:53:47.229Z,6.00
2022-10-04T00:56:19.970Z,5.33
2022-10-04T00:58:52.032Z,5.90
2022-10-04T01:01:24.078Z,5.07
2022-10-04T01:03:53.453Z,5.63
2022-10-04T01:06:23.413Z,5.43
2022-10-04T01:08:54.990Z,5.97
2022-10-04T01:11:28.346Z,6.17
2022-10-04T01:14:01.097Z,5.70
2022-10-04T01:16:30.414Z,5.77
2022-10-04T01:19:20.161Z,5.87
2022-10-04T01:21:51.023Z,5.53
2022-10-04T01:24:27.073Z,5.50
2022-10-04T01:26:55.458Z,6.40
2022-10-04T01:29:28.010Z,5.20
2022-10-04T01:31:59.838Z,5.53
2022-10-04T01:34:30.921Z,5.70
2022-10-04T01:37:04.157Z,5.83
2022-10-04T01:39:35.420Z,5.40
2022-10-04T01:42:27.529Z,5.90
2022-10-04T01:44:59.010Z,5.77
2022-10-04T01:47:29.263Z,5.43
2022-10-04T01:50:00.047Z,6.33
2022-10-04T01:52:34.574Z,7.20
2022-10-04T01:55:05.229Z,6.40
2022-10-04T01:57:37.804Z,6.73
2022-10-04T02:00:08.627Z,6.87
2022-10-04T02:02:39.151Z,6.83
2022-10-04T02:05:11.836Z,6.67
2022-10-04T02:07:41.413Z,6.20
2022-10-04T02:10:13.419Z,6.87
2022-10-04T02:12:48.395Z,6.57
2022-10-04T02:15:17.704Z,6.50
2022-10-04T02:17:46.686Z,6.80
2022-10-04T02:20:17.543Z,6.63
2022-10-04T02:22:47.153Z,6.60
2022-10-04T02:25:17.629Z,7.07
2022-10-04T02:28:06.268Z,7.27
2022-10-04T02:30:38.464Z,7.17
2022-10-04T02:33:06.407Z,7.63
2022-10-04T02:35:37.730Z,7.53
2022-10-04T02:38:09.891Z,7.13
2022-10-04T02:40:42.448Z,6.87
2022-10-04T02:43:12.834Z,6.90
2022-10-04T02:45:47.981Z,6.87
2022-10-04T02:48:24.355Z,7.17
2022-10-04T02:50:56.532Z,7.57
2022-10-04T02:53:27.628Z,6.93
2022-10-04T02:56:00.216Z,7.20
2022-10-04T02:58:34.062Z,7.20
2022-10-04T03:01:06.645Z,6.80
2022-10-04T03:03:57.828Z,7.27
2022-10-04T03:06:32.646Z,6.80
2022-10-04T03:09:05.578Z,6.80
2022-10-04T03:11:42.527Z,5.90
2022-10-04T03:14:16.020Z,6.70
2022-10-04T03:16:46.284Z,7.63
2022-10-04T03:19:15.470Z,6.70
2022-10-04T03:21:46.348Z,7.00
2022-10-04T03:24:18.639Z,6.67
2022-10-04T03:26:49.967Z,6.63
2022-10-04T03:29:20.060Z,7.20
2022-10-04T03:31:58.636Z,7.20
2022-10-04T03:34:28.259Z,6.80
2022-10-04T03:36:58.787Z,7.57
2022-10-04T03:39:35.583Z,7.03
2022-10-04T03:42:11.764Z,7.23
2022-10-04T03:44:40.416Z,7.03
2022-10-04T03:47:11.210Z,8.53
2022-10-04T03:49:41.788Z,7.97
2022-10-04T03:52:16.778Z,9.00
2022-10-04T03:54:45.312Z,8.90
2022-10-04T03:57:15.113Z,9.43
2022-10-04T03:59:46.069Z,9.23
2022-10-04T04:02:45.814Z,9.20
2022-10-04T04:05:17.744Z,8.60
2022-10-04T04:07:49.370Z,9.03
2022-10-04T04:10:23.278Z,9.57
2022-10-04T04:12:55.648Z,9.30
2022-10-04T04:15:26.922Z,8.80
2022-10-04T04:17:56.154Z,9.00
2022-10-04T04:20:26.958Z,9.33
2022-10-04T04:23:00.316Z,9.40
2022-10-04T04:25:29.703Z,9.87
2022-10-04T04:28:19.229Z,8.80
2022-10-04T04:30:52.352Z,9.23
2022-10-04T04:33:44.798Z,8.50
2022-10-04T04:36:15.103Z,8.83
2022-10-04T04:38:58.585Z,8.17
2022-10-04T04:41:28.789Z,9.10
2022-10-04T04:44:17.860Z,9.27
2022-10-04T04:46:47.010Z,9.07
2022-10-04T04:49:17.512Z,8.63
2022-10-04T04:51:49.736Z,9.03
2022-10-04T04:54:19.371Z,9.30
2022-10-04T04:56:49.445Z,8.83
2022-10-04T04:59:19.897Z,8.50
2022-10-04T05:01:48.753Z,8.90
2022-10-04T05:04:21.259Z,8.27
2022-10-04T05:06:50.292Z,8.27
2022-10-04T05:09:26.100Z,9.13
2022-10-04T05:11:55.596Z,8.23
2022-10-04T05:14:25.236Z,9.23
2022-10-04T05:16:54.783Z,8.60
2022-10-04T05:19:24.876Z,9.37
2022-10-04T05:21:54.279Z,9.57
2022-10-04T05:24:24.284Z,9.43
2022-10-04T05:26:53.759Z,9.27
2022-10-04T05:29:23.419Z,9.77
2022-10-04T05:31:57.126Z,9.60
2022-10-04T05:34:27.102Z,10.60
2022-10-04T05:37:00.318Z,10.27
2022-10-04T05:39:30.270Z,10.10
2022-10-04T05:42:02.556Z,10.03
2022-10-04T05:44:31.845Z,10.07
2022-10-04T05:47:03.312Z,10.67
2022-10-04T05:49:32.694Z,10.73
2022-10-04T05:52:01.872Z,10.30
2022-10-04T05:54:32.840Z,11.13
2022-10-04T05:57:08.295Z,10.20
2022-10-04T05:59:42.612Z,10.50
2022-10-04T06:02:18.526Z,10.27
2022-10-04T06:04:52.405Z,10.80
2022-10-04T06:07:24.605Z,10.73
2022-10-04T06:10:07.581Z,10.97
2022-10-04T06:12:44.605Z,10.73
2022-10-04T06:15:24.260Z,11.67
2022-10-04T06:18:04.232Z,10.90
2022-10-04T06:20:43.689Z,11.63
2022-10-04T06:23:15.088Z,10.60
2022-10-04T06:25:47.128Z,11.93
2022-10-04T06:28:17.756Z,11.47
2022-10-04T06:30:53.693Z,11.37
2022-10-04T06:33:30.528Z,11.00
2022-10-04T06:36:06.779Z,10.63
2022-10-04T06:38:56.364Z,10.90
2022-10-04T06:41:31.095Z,10.67
2022-10-04T06:44:08.902Z,10.43
2022-10-04T06:46:43.215Z,10.83
2022-10-04T06:49:20.124Z,10.73
2022-10-04T06:51:59.090Z,11.13
2022-10-04T06:54:36.242Z,12.23
2022-10-04T06:57:18.944Z,11.60
2022-10-04T06:59:52.768Z,11.23
2022-10-04T07:02:23.376Z,11.43
2022-10-04T07:05:08.165Z,11.30
2022-10-04T07:07:39.656Z,10.67
2022-10-04T07:10:23.695Z,10.63
2022-10-04T07:12:55.318Z,10.47
2022-10-04T07:15:25.416Z,10.63
2022-10-04T07:17:54.947Z,10.77
2022-10-04T07:20:25.451Z,9.97
2022-10-04T07:22:58.135Z,11.07
2022-10-04T07:25:28.883Z,11.33
2022-10-04T07:28:14.621Z,10.93
2022-10-04T07:30:45.667Z,11.47
2022-10-04T07:33:17.274Z,11.20
2022-10-04T07:35:49.878Z,11.10
2022-10-04T07:38:19.817Z,10.30
2022-10-04T07:40:53.856Z,10.63
2022-10-04T07:43:26.869Z,10.53
2022-10-04T07:46:03.532Z,9.83
2022-10-04T07:48:31.947Z,11.00
2022-10-04T07:51:09.375Z,9.83
2022-10-04T07:53:42.570Z,10.93
2022-10-04T07:56:13.503Z,11.07
2022-10-04T07:58:47.332Z,10.90
2022-10-04T08:01:23.846Z,10.30
2022-10-04T08:04:08.851Z,11.13
2022-10-04T08:06:40.061Z,10.53
2022-10-04T08:09:22.317Z,10.43
2022-10-04T08:11:55.736Z,11.33
2022-10-04T08:14:29.304Z,11.00
2022-10-04T08:17:05.214Z,12.10
2022-10-04T08:19:39.901Z,10.83
2022-10-04T08:22:15.757Z,11.50
2022-10-04T08:24:53.479Z,12.50
2022-10-04T08:27:32.732Z,11.37
2022-10-04T08:30:04.755Z,12.13
2022-10-04T08:32:45.603Z,12.27
2022-10-04T08:35:20.689Z,11.33
2022-10-04T08:37:56.758Z,10.43
2022-10-04T08:40:38.584Z,11.30
2022-10-04T08:43:29.292Z,11.10
2022-10-04T08:46:13.866Z,11.07
2022-10-04T08:49:02.537Z,11.27
2022-10-04T08:51:45.698Z,11.53
2022-10-04T08:54:28.314Z,11.63
2022-10-04T08:57:11.181Z,12.27
2022-10-04T09:00:05.849Z,11.63
2022-10-04T09:02:58.357Z,10.30
2022-10-04T09:05:37.501Z,10.43
2022-10-04T09:08:26.531Z,10.80
2022-10-04T09:11:08.529Z,10.70
2022-10-04T09:13:42.175Z,10.63
2022-10-04T09:16:18.218Z,11.30
2022-10-04T09:18:51.727Z,10.73
2022-10-04T09:21:29.178Z,10.80
2022-10-04T09:24:11.291Z,11.23
2022-10-04T09:26:46.371Z,10.83
2022-10-04T09:29:23.053Z,11.03
2022-10-04T09:32:12.030Z,10.57
2022-10-04T09:34:49.882Z,10.73
2022-10-04T09:37:28.583Z,10.37
2022-10-04T09:40:36.026Z,10.83
2022-10-04T09:43:12.657Z,10.43
2022-10-04T09:46:00.464Z,9.87
2022-10-04T09:48:36.390Z,8.80
2022-10-04T09:51:13.668Z,9.73
2022-10-04T09:54:05.122Z,10.67
2022-10-04T09:56:49.102Z,8.57
2022-10-04T09:59:37.430Z,9.60
2022-10-04T10:02:18.960Z,9.63
2022-10-04T10:04:50.786Z,9.87
2022-10-04T10:07:34.309Z,10.30
2022-10-04T10:10:22.155Z,9.90
2022-10-04T10:13:23.096Z,9.67
2022-10-04T10:15:59.083Z,10.48
2022-10-04T10:18:33.629Z,9.35
2022-10-04T10:21:09.106Z,9.82
2022-10-04T10:23:48.112Z,9.20
2022-10-04T10:26:27.763Z,8.95
2022-10-04T10:29:12.324Z,9.10
2022-10-04T10:31:56.098Z,9.00
2022-10-04T10:34:32.543Z,8.18
2022-10-04T10:37:09.448Z,7.40
2022-10-04T10:39:52.676Z,6.65
2022-10-04T10:42:39.397Z,7.25
2022-10-04T10:45:26.773Z,7.35
2022-10-04T10:48:01.801Z,7.55
2022-10-04T10:51:00.306Z,7.57
2022-10-04T10:53:43.069Z,8.20
2022-10-04T10:56:38.524Z,8.40
2022-10-04T10:59:32.096Z,8.27
2022-10-04T11:02:10.839Z,8.20
2022-10-04T11:04:54.817Z,8.07
2022-10-04T11:07:38.488Z,8.18
2022-10-04T11:10:26.554Z,8.60
2022-10-04T11:13:10.001Z,9.30
2022-10-04T11:16:08.503Z,9.13
2022-10-04T11:19:13.336Z,9.57
2022-10-04T11:22:07.790Z,10.52
2022-10-04T11:34:05.445Z,11.77
2022-10-04T11:36:39.360Z,11.30
2022-10-04T11:39:17.519Z,10.40
2022-10-04T11:41:52.622Z,10.73
2022-10-04T11:44:41.236Z,10.63
2022-10-04T11:47:16.192Z,10.63
2022-10-04T11:50:10.526Z,9.90
2022-10-04T11:52:52.941Z,10.63
2022-10-04T11:55:44.761Z,10.05
2022-10-04T11:58:16.713Z,10.85
2022-10-04T12:00:57.998Z,9.73
2022-10-04T12:03:50.462Z,10.77
2022-10-04T12:06:23.455Z,9.70
2022-10-04T12:09:04.858Z,10.55
2022-10-04T12:12:11.046Z,10.68
2022-10-04T12:14:47.838Z,9.65
2022-10-04T12:17:33.259Z,10.07
2022-10-04T12:20:20.853Z,9.85
2022-10-04T12:23:02.753Z,9.68
2022-10-04T12:25:38.916Z,8.50
2022-10-04T12:28:17.879Z,9.88
2022-10-04T12:30:58.952Z,9.43
2022-10-04T12:33:34.317Z,8.52
2022-10-04T12:36:12.803Z,9.32
2022-10-04T12:39:08.102Z,8.45
2022-10-04T12:41:45.028Z,8.35
2022-10-04T12:44:23.884Z,8.90
2022-10-04T12:46:56.797Z,9.07
2022-10-04T12:49:37.780Z,8.68
2022-10-04T12:52:17.752Z,8.02
2022-10-04T12:54:47.775Z,7.68
2022-10-04T12:57:37.054Z,7.28
2022-10-04T13:00:08.573Z,7.78
2022-10-04T13:03:14.325Z,7.57
2022-10-04T13:05:48.767Z,7.20
2022-10-04T13:08:30.796Z,7.55
2022-10-04T13:11:17.540Z,7.50
2022-10-04T13:14:01.119Z,6.90
2022-10-04T13:19:30.385Z,6.95
2022-10-04T13:22:11.481Z,7.53
2022-10-04T13:24:58.376Z,6.68
2022-10-04T13:27:33.616Z,7.25
2022-10-04T13:30:06.588Z,6.85
2022-10-04T13:32:37.954Z,7.10
2022-10-04T13:35:13.799Z,7.47
2022-10-04T13:37:47.528Z,7.25
2022-10-04T13:40:30.607Z,6.90
2022-10-04T13:43:07.439Z,7.50
2022-10-04T13:45:39.858Z,7.57
2022-10-04T13:48:26.002Z,7.68
2022-10-04T13:51:00.189Z,7.13
2022-10-04T13:53:54.341Z,6.47
2022-10-04T13:56:40.761Z,6.35
2022-10-04T13:59:20.386Z,5.70
2022-10-04T14:02:14.646Z,6.85
2022-10-04T14:04:58.006Z,6.35
2022-10-04T14:07:44.834Z,6.20
2022-10-04T14:10:22.916Z,6.05
2022-10-04T14:13:06.477Z,5.97
2022-10-04T14:16:05.199Z,5.65
2022-10-04T14:18:51.961Z,6.50
2022-10-04T14:21:38.997Z,6.80
2022-10-04T14:45:33.988Z,6.78
2022-10-04T14:48:13.376Z,7.53
2022-10-04T14:53:56.142Z,6.15
2022-10-04T14:56:43.933Z,6.80
2022-10-04T14:59:30.876Z,6.47
2022-10-04T15:02:28.763Z,6.43
2022-10-04T15:07:54.725Z,7.70
2022-10-04T15:10:25.966Z,7.30
2022-10-04T15:13:10.963Z,6.75
2022-10-04T15:15:52.552Z,6.43
2022-10-04T15:18:27.820Z,7.15
2022-10-04T15:20:57.262Z,7.15
2022-10-04T15:23:34.724Z,7.05
2022-10-04T15:26:08.689Z,6.88
2022-10-04T15:28:47.706Z,7.30
2022-10-04T15:31:21.093Z,6.43
2022-10-04T15:33:57.908Z,6.22
2022-10-04T15:36:39.631Z,6.40
2022-10-04T15:39:24.555Z,6.47
2022-10-04T15:41:55.023Z,7.10
2022-10-04T15:44:35.254Z,6.75
2022-10-04T15:47:15.320Z,6.50
2022-10-04T15:49:54.994Z,6.90
2022-10-04T15:52:40.877Z,6.82
2022-10-04T15:55:22.703Z,6.88
2022-10-04T15:58:10.462Z,6.65
2022-10-04T16:00:48.232Z,7.95
2022-10-04T16:03:38.999Z,6.68
2022-10-04T16:06:10.928Z,7.10
2022-10-04T16:08:48.819Z,7.28
2022-10-04T16:11:28.969Z,7.25
2022-10-04T16:14:09.379Z,7.85
2022-10-04T16:16:51.987Z,6.90
2022-10-04T16:19:30.246Z,7.00
2022-10-04T16:22:16.607Z,6.35
2022-10-04T16:24:50.600Z,7.18
2022-10-04T16:27:35.391Z,6.95
2022-10-04T16:30:26.187Z,6.50
2022-10-04T16:33:14.167Z,6.45
2022-10-04T16:35:44.246Z,5.78
2022-10-04T16:38:24.289Z,6.53
2022-10-04T16:41:16.581Z,5.72
2022-10-04T16:43:54.044Z,5.65
2022-10-04T16:46:29.656Z,6.22
2022-10-04T16:48:59.604Z,6.35
2022-10-04T16:51:40.814Z,5.20
2022-10-04T16:54:16.289Z,6.60
2022-10-04T16:57:00.835Z,5.93
2022-10-04T16:59:44.363Z,5.85
2022-10-04T17:02:25.134Z,5.72
2022-10-04T17:04:56.687Z,5.97
2022-10-04T17:07:29.277Z,5.53
2022-10-04T17:10:02.976Z,5.45
2022-10-04T17:12:36.875Z,5.22
2022-10-04T17:15:11.178Z,5.00
2022-10-04T17:17:48.993Z,5.38
2022-10-04T17:20:25.655Z,6.03
2022-10-04T17:23:00.279Z,5.28
2022-10-04T17:25:35.473Z,5.80
2022-10-04T17:28:13.725Z,5.75
2022-10-04T17:30:49.344Z,5.47
2022-10-04T17:33:24.809Z,5.18
2022-10-04T17:35:59.712Z,5.32
2022-10-04T17:38:32.406Z,6.07
2022-10-04T17:41:03.096Z,5.78
2022-10-04T17:43:34.588Z,5.38
2022-10-04T17:46:22.810Z,6.10
2022-10-04T17:49:14.608Z,5.43
2022-10-04T17:52:02.017Z,5.15
2022-10-04T17:54:50.870Z,5.57
2022-10-04T17:57:25.315Z,5.40
2022-10-04T17:59:56.841Z,5.63
2022-10-04T18:02:26.887Z,5.38
2022-10-04T18:04:59.077Z,5.10
2022-10-04T18:07:29.106Z,4.85
2022-10-04T18:10:09.651Z,4.82
2022-10-04T18:12:43.744Z,4.82
2022-10-04T18:15:20.940Z,4.78
2022-10-04T18:17:54.003Z,4.03
2022-10-04T18:20:29.452Z,4.18
2022-10-04T18:23:02.208Z,4.20
2022-10-04T18:25:34.319Z,3.35
2022-10-04T18:28:16.554Z,3.42
2022-10-04T18:31:00.777Z,2.83
2022-10-04T18:33:53.219Z,2.88
2022-10-04T18:36:31.411Z,2.20
2022-10-04T18:39:04.889Z,2.15
2022-10-04T18:41:51.119Z,2.38
2022-10-04T18:44:26.200Z,2.45
2022-10-04T18:46:59.242Z,1.90
2022-10-04T18:52:44.157Z,1.98
2022-10-04T18:55:51.755Z,1.73
2022-10-04T18:58:44.934Z,1.70
2022-10-04T19:01:44.771Z,1.55
2022-10-04T19:04:17.596Z,1.65
2022-10-04T19:06:49.880Z,2.03
2022-10-04T19:09:28.318Z,2.47
2022-10-04T19:12:04.409Z,2.03
2022-10-04T19:14:39.634Z,2.00
2022-10-04T19:17:16.866Z,1.88
2022-10-04T19:19:52.366Z,2.20
2022-10-04T19:22:29.358Z,2.20
2022-10-04T19:25:17.054Z,1.88
2022-10-04T19:27:58.563Z,1.83
2022-10-04T19:30:30.144Z,1.73
2022-10-04T19:33:07.074Z,1.73
2022-10-04T19:35:46.531Z,1.70
2022-10-04T19:38:22.904Z,1.80
2022-10-04T19:41:00.357Z,1.48
2022-10-04T19:43:37.858Z,1.63
2022-10-04T19:46:19.811Z,1.70
2022-10-04T19:49:01.862Z,1.60
2022-10-04T19:51:40.201Z,1.60
2022-10-04T19:54:16.583Z,1.30
2022-10-04T19:56:48.150Z,1.20
2022-10-04T19:59:29.863Z,1.35
2022-10-04T20:01:59.302Z,1.15
2022-10-04T20:04:38.634Z,1.25
2022-10-04T20:07:18.407Z,1.05
2022-10-04T20:09:56.047Z,1.10
2022-10-04T20:12:33.138Z,1.05
2022-10-04T20:15:27.800Z,1.20
2022-10-04T20:17:58.189Z,1.20
2022-10-04T20:20:45.883Z,1.40
2022-10-04T20:23:39.376Z,1.02
2022-10-04T20:26:32.498Z,1.23
2022-10-04T20:29:07.274Z,0.82
2022-10-04T20:31:56.426Z,0.88
2022-10-04T20:34:33.749Z,1.20
2022-10-04T20:37:03.414Z,0.82
2022-10-04T20:40:21.600Z,1.00
2022-10-04T20:43:15.237Z,0.93
2022-10-04T20:45:47.973Z,1.27
2022-10-04T20:48:37.395Z,1.40
2022-10-04T20:51:10.912Z,1.38
2022-10-04T20:53:47.202Z,1.50
2022-10-04T20:56:58.679Z,1.60
2022-10-04T20:59:42.750Z,2.03
2022-10-04T21:02:23.104Z,1.98
2022-10-04T21:04:57.484Z,2.22
2022-10-04T21:07:27.728Z,2.00
2022-10-04T21:10:08.415Z,2.03
2022-10-04T21:12:40.337Z,1.60
2022-10-04T21:15:23.167Z,1.70
2022-10-04T21:18:09.807Z,1.60
2022-10-04T21:20:46.717Z,1.40
2022-10-04T21:23:23.437Z,1.50
2022-10-04T21:25:52.495Z,1.77
2022-10-04T21:28:26.697Z,1.58
2022-10-04T21:30:55.597Z,1.40
2022-10-04T21:33:31.614Z,1.67
2022-10-04T21:36:03.847Z,1.52
2022-10-04T21:38:35.982Z,1.42
2022-10-04T21:41:24.705Z,1.33
2022-10-04T21:43:56.901Z,1.30
2022-10-04T21:46:27.467Z,1.20
2022-10-04T21:48:57.326Z,1.30
2022-10-04T21:51:28.014Z,1.30
2022-10-04T21:54:01.766Z,1.20
2022-10-04T21:56:32.278Z,1.40
2022-10-04T21:59:02.259Z,1.38
2022-10-04T22:01:31.817Z,1.60
2022-10-04T22:04:03.938Z,1.50
2022-10-04T22:06:35.378Z,1.55
2022-10-04T22:09:07.243Z,1.60
2022-10-04T22:11:37.190Z,1.52
2022-10-04T22:14:09.655Z,1.40
2022-10-04T22:16:54.778Z,1.63
2022-10-04T22:19:27.192Z,1.42
2022-10-04T22:21:56.147Z,1.95
2022-10-04T22:24:26.363Z,2.13
2022-10-04T22:27:01.208Z,1.70
2022-10-04T22:29:31.081Z,1.48
2022-10-04T22:31:59.895Z,1.52
2022-10-04T22:34:53.042Z,1.65
2022-10-04T22:37:25.216Z,1.67
2022-10-04T22:39:53.926Z,1.60
2022-10-04T22:42:44.179Z,1.77
2022-10-04T22:45:24.524Z,1.27
2022-10-04T22:47:53.597Z,1.45
2022-10-04T22:50:33.171Z,1.35
2022-10-04T22:53:11.632Z,1.17
2022-10-04T22:55:42.644Z,1.40
2022-10-04T22:58:13.168Z,1.05
2022-10-04T23:00:43.386Z,1.35
2022-10-04T23:03:21.040Z,0.95
2022-10-04T23:05:54.237Z,1.20
2022-10-04T23:08:23.784Z,1.15
2022-10-04T23:10:56.697Z,1.13
2022-10-04T23:13:47.663Z,1.20
2022-10-04T23:16:19.334Z,1.10
2022-10-04T23:18:52.083Z,1.17
2022-10-04T23:21:24.824Z,1.17
2022-10-04T23:23:57.201Z,1.80
2022-10-04T23:26:47.266Z,1.58
2022-10-04T23:29:21.087Z,1.10
2022-10-04T23:31:51.677Z,1.50
2022-10-04T23:34:21.776Z,1.15
2022-10-04T23:36:54.013Z,1.20
2022-10-04T23:39:25.805Z,1.33
2022-10-04T23:42:00.006Z,1.40
2022-10-04T23:44:33.380Z,1.75
2022-10-04T23:47:23.505Z,2.97
2022-10-04T23:49:54.481Z,1.40
2022-10-04T23:52:26.603Z,1.10
2022-10-04T23:54:56.135Z,1.40
2022-10-04T23:57:45.054Z,1.27
